Time;durP1;ratioP1;P1;durP2;ratioP2;P2;SDS_P1;SDS_P2;PMS_P1;PMS_P2;Temp;Humidity;BMP_temperature;BMP_pressure;BME280_temperature;BME280_humidity;BME280_pressure;Samples;Min_cycle;Max_cycle;Signal;HPM_P1;HPM_P2
2023/08/25 00:01:31;;;;;;;7.80;6.50;;;;;;;17.58;100.00;97318.66;110191;1243;59753;-71
2023/08/25 00:04:03;;;;;;;7.50;6.70;;;;;;;17.56;100.00;97314.29;110182;1244;70680;-70
2023/08/25 00:06:34;;;;;;;7.10;6.00;;;;;;;17.54;100.00;97320.33;110166;1245;69574;-70
2023/08/25 00:09:04;;;;;;;8.10;6.30;;;;;;;17.53;100.00;97320.41;110144;1241;68452;-70
2023/08/25 00:11:35;;;;;;;7.50;6.10;;;;;;;17.52;100.00;97313.27;110158;1244;59757;-70
2023/08/25 00:14:06;;;;;;;7.10;6.10;;;;;;;17.52;100.00;97312.61;110154;1244;59651;-69
2023/08/25 00:16:37;;;;;;;9.10;7.20;;;;;;;17.50;100.00;97314.48;110150;1241;71405;-70
2023/08/25 00:19:08;;;;;;;7.60;6.20;;;;;;;17.49;100.00;97313.30;110221;1245;69172;-70
2023/08/25 00:21:41;;;;;;;8.00;6.80;;;;;;;17.46;100.00;97313.17;110174;1244;69266;-70
2023/08/25 00:24:16;;;;;;;7.00;5.90;;;;;;;17.45;100.00;97312.44;110190;1244;59744;-70
2023/08/25 00:26:47;;;;;;;7.30;6.10;;;;;;;17.43;100.00;97309.82;110241;1244;59792;-70
2023/08/25 00:29:20;;;;;;;7.60;6.60;;;;;;;17.40;100.00;97308.31;110214;1241;71364;-70
2023/08/25 00:31:51;;;;;;;10.10;7.70;;;;;;;17.36;100.00;97307.04;110191;1241;68685;-69
2023/08/25 00:34:23;;;;;;;9.30;7.20;;;;;;;17.28;100.00;97304.98;110172;1244;69328;-69
2023/08/25 00:36:57;;;;;;;9.60;7.30;;;;;;;17.23;100.00;97303.87;110162;1243;59750;-70
2023/08/25 00:39:29;;;;;;;8.10;6.60;;;;;;;17.20;100.00;97297.21;110277;1244;59713;-70
2023/08/25 00:42:01;;;;;;;7.70;6.60;;;;;;;17.18;100.00;97294.21;110239;1241;70564;-69
2023/08/25 00:44:33;;;;;;;8.70;7.00;;;;;;;17.16;100.00;97297.21;110209;1247;68444;-70
2023/08/25 00:47:05;;;;;;;7.90;6.70;;;;;;;17.18;100.00;97290.68;110146;1241;69318;-70
2023/08/25 00:49:36;;;;;;;9.20;7.40;;;;;;;17.16;100.00;97291.11;110158;1241;59723;-69
2023/08/25 00:52:10;;;;;;;7.50;6.50;;;;;;;17.15;100.00;97288.20;110184;1241;59691;-69
2023/08/25 00:54:43;;;;;;;7.30;6.50;;;;;;;17.12;100.00;97286.59;110184;1241;71394;-70
2023/08/25 00:57:14;;;;;;;8.70;6.50;;;;;;;17.08;100.00;97289.06;110208;1241;68633;-69
2023/08/25 00:59:46;;;;;;;7.30;6.30;;;;;;;17.06;100.00;97287.91;110183;1241;70041;-69
2023/08/25 01:02:16;;;;;;;7.60;6.70;;;;;;;17.03;100.00;97289.23;110170;1243;59742;-71
2023/08/25 01:04:47;;;;;;;8.80;7.70;;;;;;;16.97;100.00;97283.62;110185;1241;59673;-70
2023/08/25 01:07:18;;;;;;;8.50;6.70;;;;;;;16.94;100.00;97279.60;110194;1243;72085;-70
2023/08/25 01:09:57;;;;;;;8.20;7.10;;;;;;;16.93;100.00;97276.01;110224;1243;69141;-70
2023/08/25 01:12:41;;;;;;;8.40;6.80;;;;;;;16.92;100.00;97274.84;110156;1241;69235;-69
2023/08/25 01:15:22;;;;;;;9.40;7.60;;;;;;;16.92;100.00;97275.61;110165;1244;59725;-69
2023/08/25 01:18:18;;;;;;;7.50;6.40;;;;;;;16.90;100.00;97273.44;110185;1241;60032;-69
2023/08/25 01:20:50;;;;;;;6.90;6.10;;;;;;;16.88;100.00;97272.94;110178;1244;70952;-69
2023/08/25 01:23:35;;;;;;;9.10;6.40;;;;;;;16.88;100.00;97270.90;110178;1245;68471;-69
2023/08/25 01:26:08;;;;;;;6.60;5.80;;;;;;;16.86;100.00;97270.04;110145;1241;69247;-69
2023/08/25 01:28:41;;;;;;;7.50;6.00;;;;;;;16.83;100.00;97274.77;110115;1241;59728;-69
2023/08/25 01:31:12;;;;;;;8.00;6.60;;;;;;;16.78;100.00;97279.04;110200;1241;59689;-70
2023/08/25 01:33:46;;;;;;;8.10;6.50;;;;;;;16.74;100.00;97277.70;110180;1242;70640;-69
2023/08/25 01:36:33;;;;;;;7.90;7.00;;;;;;;16.69;100.00;97273.95;110181;1244;69267;-70
2023/08/25 01:39:15;;;;;;;7.70;6.30;;;;;;;16.65;100.00;97273.09;110181;1241;68534;-68
2023/08/25 01:41:59;;;;;;;8.40;7.00;;;;;;;16.63;100.00;97269.07;110131;1244;59750;-69
2023/08/25 01:44:33;;;;;;;8.80;6.80;;;;;;;16.61;100.00;97271.56;110188;1244;59713;-67
2023/08/25 01:47:08;;;;;;;7.90;6.80;;;;;;;16.60;100.00;97272.39;110153;1241;70632;-69
2023/08/25 01:49:40;;;;;;;9.10;6.90;;;;;;;16.59;100.00;97274.45;110142;1241;69339;-69
2023/08/25 01:52:14;;;;;;;6.80;6.00;;;;;;;16.57;100.00;97279.19;110178;1241;68545;-68
2023/08/25 01:54:53;;;;;;;7.50;6.50;;;;;;;16.55;100.00;97280.96;110182;1241;59741;-67
2023/08/25 01:57:25;;;;;;;7.90;6.10;;;;;;;16.52;100.00;97278.65;110184;1241;59676;-70
2023/08/25 01:59:57;;;;;;;7.60;6.80;;;;;;;16.49;100.00;97282.98;109987;1242;71410;-69
2023/08/25 02:02:30;;;;;;;8.00;6.50;;;;;;;16.46;100.00;97285.54;110115;1245;69267;-69
2023/08/25 02:05:07;;;;;;;7.40;5.90;;;;;;;16.48;100.00;97289.10;110170;1241;68863;-70
2023/08/25 02:07:41;;;;;;;7.00;5.40;;;;;;;16.50;100.00;97291.49;110122;1242;59789;-69
2023/08/25 02:10:16;;;;;;;9.60;7.00;;;;;;;16.50;100.00;97294.09;110133;1244;59675;-69
2023/08/25 02:12:48;;;;;;;7.30;6.30;;;;;;;16.48;100.00;97291.67;110158;1244;71457;-69
2023/08/25 02:15:19;;;;;;;8.00;6.30;;;;;;;16.45;100.00;97292.01;110175;1244;69204;-69
2023/08/25 02:17:50;;;;;;;8.40;6.30;;;;;;;16.43;100.00;97294.17;110111;1244;68722;-69
2023/08/25 02:20:21;;;;;;;9.90;7.90;;;;;;;16.38;100.00;97296.89;110128;1241;59804;-69
2023/08/25 02:22:52;;;;;;;7.60;6.10;;;;;;;16.33;100.00;97296.55;110047;1241;59653;-69
2023/08/25 02:25:22;;;;;;;7.90;6.60;;;;;;;16.30;100.00;97303.24;110112;1241;70710;-68
2023/08/25 02:27:53;;;;;;;7.90;6.50;;;;;;;16.28;100.00;97306.60;110188;1244;68439;-69
2023/08/25 02:30:26;;;;;;;6.40;5.50;;;;;;;16.29;100.00;97307.59;110160;1243;69313;-68
2023/08/25 02:32:57;;;;;;;7.40;6.50;;;;;;;16.30;100.00;97302.43;110179;1244;59796;-70
2023/08/25 02:35:29;;;;;;;8.40;5.70;;;;;;;16.31;100.00;97308.14;110184;1241;59686;-70
2023/08/25 02:38:06;;;;;;;8.30;6.50;;;;;;;16.32;100.00;97309.08;110182;1244;71552;-69
2023/08/25 02:40:38;;;;;;;8.50;7.20;;;;;;;16.34;100.00;97310.90;110171;1243;69122;-70
2023/08/25 02:43:09;;;;;;;6.80;6.10;;;;;;;16.35;100.00;97319.05;110119;1244;69414;-67
2023/08/25 02:45:42;;;;;;;7.80;6.10;;;;;;;16.35;100.00;97326.56;110178;1243;59747;-70
2023/08/25 02:48:14;;;;;;;7.90;5.60;;;;;;;16.37;100.00;97332.44;110152;1243;59651;-70
2023/08/25 02:50:45;;;;;;;6.60;5.70;;;;;;;16.40;100.00;97333.82;110119;1241;71429;-69
2023/08/25 02:53:17;;;;;;;8.50;6.20;;;;;;;16.42;100.00;97339.45;110152;1241;69209;-69
2023/08/25 02:55:48;;;;;;;7.50;6.50;;;;;;;16.45;100.00;97340.55;110129;1243;68541;-69
2023/08/25 02:58:22;;;;;;;8.00;6.00;;;;;;;16.45;100.00;97345.30;110107;1244;59716;-69
2023/08/25 03:00:51;;;;;;;7.90;6.50;;;;;;;16.46;100.00;97350.33;110152;1243;59670;-68
2023/08/25 03:03:23;;;;;;;7.30;6.10;;;;;;;16.45;100.00;97352.52;110120;1241;71417;-69
2023/08/25 03:05:59;;;;;;;6.60;5.90;;;;;;;16.47;100.00;97354.73;110169;1241;69217;-69
2023/08/25 03:08:29;;;;;;;6.90;5.70;;;;;;;16.49;100.00;97358.23;110186;1241;69208;-68
2023/08/25 03:11:03;;;;;;;9.40;7.30;;;;;;;16.51;100.00;97358.56;110127;1244;59673;-69
2023/08/25 03:13:35;;;;;;;7.90;6.70;;;;;;;16.55;100.00;97355.70;110107;1241;59753;-69
2023/08/25 03:16:07;;;;;;;7.90;6.40;;;;;;;16.55;100.00;97360.12;110160;1244;71378;-69
2023/08/25 03:18:38;;;;;;;8.30;6.80;;;;;;;16.61;100.00;97359.38;110131;1241;68264;-69
2023/08/25 03:21:08;;;;;;;8.70;7.00;;;;;;;16.65;100.00;97365.98;110154;1241;69527;-69
2023/08/25 03:23:39;;;;;;;8.90;8.00;;;;;;;16.68;100.00;97365.71;110107;1242;59661;-70
2023/08/25 03:26:18;;;;;;;8.40;6.90;;;;;;;16.71;100.00;97363.83;110169;1243;59657;-68
2023/08/25 03:28:50;;;;;;;9.00;8.10;;;;;;;16.73;100.00;97367.04;110116;1244;71412;-69
2023/08/25 03:31:23;;;;;;;7.70;6.70;;;;;;;16.73;100.00;97368.27;110113;1244;68481;-69
2023/08/25 03:33:55;;;;;;;8.20;6.60;;;;;;;16.71;100.00;97366.41;110074;1241;68524;-67
2023/08/25 03:36:27;;;;;;;6.80;6.10;;;;;;;16.71;100.00;97371.20;110139;1241;59691;-70
2023/08/25 03:38:59;;;;;;;7.60;6.20;;;;;;;16.69;100.00;97367.38;110138;1243;59707;-69
2023/08/25 03:41:31;;;;;;;8.50;6.60;;;;;;;16.67;100.00;97370.88;110133;1244;70896;-67
2023/08/25 03:44:02;;;;;;;8.70;7.20;;;;;;;16.64;100.00;97372.10;110109;1244;69250;-70
2023/08/25 03:46:36;;;;;;;9.20;7.20;;;;;;;16.60;100.00;97378.28;110136;1241;68569;-70
2023/08/25 03:49:09;;;;;;;8.30;7.20;;;;;;;16.59;100.00;97384.20;110138;1241;59683;-69
2023/08/25 03:51:40;;;;;;;8.20;6.70;;;;;;;16.57;100.00;97389.52;110141;1245;59637;-69
2023/08/25 03:54:12;;;;;;;9.40;6.70;;;;;;;16.54;100.00;97392.59;110143;1245;71765;-69
2023/08/25 03:56:43;;;;;;;9.20;7.60;;;;;;;16.54;100.00;97395.78;110168;1243;69675;-69
2023/08/25 03:59:15;;;;;;;9.00;7.20;;;;;;;16.54;100.00;97400.28;110149;1244;69102;-70
2023/08/25 04:01:50;;;;;;;7.30;5.90;;;;;;;16.56;100.00;97403.84;110162;1241;59771;-70
2023/08/25 04:04:20;;;;;;;;;;;;;;;16.58;100.00;97407.57;110159;1241;59694;-70
2023/08/25 04:06:53;;;;;;;8.30;6.70;;;;;;;16.53;100.00;97401.85;110134;1245;70671;-69
2023/08/25 04:09:24;;;;;;;7.10;5.80;;;;;;;16.63;100.00;97403.00;110152;1245;69258;-69
2023/08/25 04:11:59;;;;;;;7.50;6.70;;;;;;;16.78;100.00;97411.07;110124;1244;68569;-70
2023/08/25 04:14:31;;;;;;;8.40;6.40;;;;;;;16.93;100.00;97407.31;110176;1241;59686;-69
2023/08/25 04:17:01;;;;;;;7.10;6.00;;;;;;;17.09;100.00;97408.70;110132;1241;59787;-69
2023/08/25 04:19:31;;;;;;;;;;;;;;;17.24;100.00;97412.86;110150;1244;71944;-68
2023/08/25 04:22:01;;;;;;;7.90;6.00;;;;;;;17.41;100.00;97414.54;110156;1245;68392;-68
2023/08/25 04:24:30;;;;;;;7.30;5.80;;;;;;;17.57;100.00;97407.76;110103;1244;67836;-70
2023/08/25 04:27:00;;;;;;;7.30;6.50;;;;;;;17.70;100.00;97407.98;110163;1245;59678;-70
2023/08/25 04:29:30;;;;;;;8.40;6.80;;;;;;;17.73;100.00;97400.64;109909;1245;59618;-70
2023/08/25 04:32:01;;;;;;;9.00;6.90;;;;;;;17.86;100.00;97399.77;110101;1241;71297;-68
2023/08/25 04:34:37;;;;;;;8.50;7.20;;;;;;;17.99;100.00;97394.98;110089;1244;69645;-70
2023/08/25 04:37:07;;;;;;;8.40;6.50;;;;;;;18.14;100.00;97394.52;110149;1241;68610;-68
2023/08/25 04:39:40;;;;;;;7.00;6.00;;;;;;;18.31;100.00;97394.17;110173;1242;59663;-69
2023/08/25 04:42:10;;;;;;;8.70;7.40;;;;;;;18.56;100.00;97396.27;110176;1241;59752;-69
2023/08/25 04:44:41;;;;;;;8.10;6.80;;;;;;;18.83;100.00;97396.40;110189;1244;71433;-70
2023/08/25 04:47:11;;;;;;;8.20;6.30;;;;;;;19.01;100.00;97389.34;110167;1241;69037;-69
2023/08/25 04:49:43;;;;;;;6.80;5.90;;;;;;;19.18;100.00;97387.41;110141;1241;68854;-69
2023/08/25 04:52:13;;;;;;;7.70;6.90;;;;;;;19.35;100.00;97388.83;110114;1244;59753;-68
2023/08/25 04:54:44;;;;;;;8.60;6.70;;;;;;;19.51;100.00;97389.90;110146;1241;59646;-69
2023/08/25 04:57:13;;;;;;;9.00;7.60;;;;;;;19.67;100.00;97394.02;110144;1241;71388;-70
2023/08/25 04:59:43;;;;;;;;;;;;;;;19.90;100.00;97393.26;110163;1241;70086;-69
2023/08/25 05:02:13;;;;;;;7.70;6.50;;;;;;;20.09;100.00;97398.89;110093;1244;69121;-70
2023/08/25 05:04:43;;;;;;;7.20;6.40;;;;;;;20.45;100.00;97399.14;110155;1244;59689;-70
2023/08/25 05:07:14;;;;;;;6.70;6.10;;;;;;;20.73;100.00;97401.60;110164;1241;59727;-69
2023/08/25 05:09:44;;;;;;;6.70;6.00;;;;;;;20.92;99.81;97400.52;110150;1247;71405;-68
2023/08/25 05:12:14;;;;;;;6.90;6.20;;;;;;;21.08;99.56;97397.56;110139;1244;69835;-69
2023/08/25 05:14:45;;;;;;;8.00;7.00;;;;;;;21.21;99.15;97395.74;110156;1245;69230;-70
2023/08/25 05:17:14;;;;;;;7.40;6.30;;;;;;;21.37;99.24;97398.29;110060;1243;59805;-69
2023/08/25 05:19:46;;;;;;;9.10;8.00;;;;;;;21.60;98.16;97397.21;110105;1244;59694;-69
2023/08/25 05:22:16;;;;;;;7.90;6.90;;;;;;;21.72;97.26;97402.27;110085;1241;71700;-68
2023/08/25 05:24:45;;;;;;;;;;;;;;;21.95;96.36;97399.21;110108;1241;69248;-70
2023/08/25 05:27:14;;;;;;;7.90;7.10;;;;;;;22.06;92.46;97398.95;110109;1241;68552;-69
2023/08/25 05:29:44;;;;;;;8.00;7.20;;;;;;;22.16;92.59;97398.73;110092;1245;59721;-69
2023/08/25 05:32:33;;;;;;;7.60;6.80;;;;;;;22.28;90.59;97396.82;110131;1242;59664;-68
2023/08/25 05:35:24;;;;;;;8.50;7.70;;;;;;;22.36;89.67;97397.61;110168;1241;70285;-69
2023/08/25 05:37:54;;;;;;;8.70;7.80;;;;;;;22.49;89.42;97400.75;110109;1241;68573;-68
2023/08/25 05:40:24;;;;;;;7.80;7.10;;;;;;;22.64;89.16;97399.38;110101;1244;68504;-68
2023/08/25 05:42:55;;;;;;;8.60;7.70;;;;;;;22.96;89.54;97393.46;110030;1241;59737;-68
2023/08/25 05:45:24;;;;;;;7.90;6.80;;;;;;;23.23;88.62;97391.61;110115;1244;59662;-68
2023/08/25 05:47:54;;;;;;;9.20;7.90;;;;;;;23.17;87.04;97389.27;110091;1242;71434;-69
2023/08/25 05:50:24;;;;;;;8.80;7.10;;;;;;;23.37;85.71;97390.91;110115;1241;70416;-69
2023/08/25 05:52:53;;;;;;;9.40;8.50;;;;;;;23.21;86.33;97386.14;110127;1241;69317;-69
2023/08/25 05:55:23;;;;;;;8.90;7.20;;;;;;;23.64;86.61;97395.37;110094;1243;59693;-68
2023/08/25 05:57:52;;;;;;;8.30;6.80;;;;;;;23.91;85.14;97391.91;110167;1243;59663;-69
2023/08/25 06:00:22;;;;;;;7.20;6.50;;;;;;;24.15;83.22;97393.64;110134;1241;71846;-68
2023/08/25 06:02:51;;;;;;;7.30;6.60;;;;;;;24.15;82.01;97395.77;110148;1245;69794;-68
2023/08/25 06:05:21;;;;;;;7.00;6.10;;;;;;;24.62;81.74;97395.06;110124;1243;69667;-69
2023/08/25 06:07:50;;;;;;;8.80;6.70;;;;;;;24.96;78.18;97395.84;110139;1244;59694;-68
2023/08/25 06:10:20;;;;;;;6.90;6.20;;;;;;;25.13;77.06;97398.02;110149;1241;59680;-68
2023/08/25 06:12:49;;;;;;;8.80;8.00;;;;;;;25.50;76.20;97397.52;110120;1241;71834;-69
2023/08/25 06:15:18;;;;;;;;;;;;;;;25.38;75.52;97399.70;110203;1245;69213;-71
2023/08/25 06:17:48;;;;;;;7.20;6.30;;;;;;;25.53;76.78;97397.05;110152;1243;69283;-69
2023/08/25 06:20:18;;;;;;;7.70;6.90;;;;;;;25.28;75.59;97402.08;110117;1244;59677;-68
2023/08/25 06:22:47;;;;;;;;;;;;;;;25.38;75.08;97399.37;110149;1241;59737;-68
2023/08/25 06:25:16;;;;;;;7.20;6.30;;;;;;;25.56;75.64;97402.28;110096;1241;71873;-69
2023/08/25 06:27:46;;;;;;;9.00;8.10;;;;;;;25.66;74.09;97403.45;110134;1241;69635;-69
2023/08/25 06:30:16;;;;;;;9.30;7.70;;;;;;;25.92;73.66;97405.00;110151;1244;69300;-70
2023/08/25 06:32:45;;;;;;;8.10;7.30;;;;;;;25.87;73.01;97400.98;110161;1241;60546;-70
2023/08/25 06:35:14;;;;;;;;;;;;;;;25.89;73.07;97402.27;110178;1244;59640;-70
2023/08/25 06:37:43;;;;;;;6.60;5.90;;;;;;;26.12;73.38;97407.95;110145;1241;71401;-68
2023/08/25 06:40:12;;;;;;;6.80;6.00;;;;;;;26.55;71.59;97407.71;110145;1242;69881;-69
2023/08/25 06:42:42;;;;;;;7.30;6.20;;;;;;;27.08;71.82;97403.10;110088;1241;68623;-69
2023/08/25 06:45:11;;;;;;;8.00;7.20;;;;;;;27.27;68.88;97399.89;110130;1241;59740;-68
2023/08/25 06:47:41;;;;;;;6.80;6.10;;;;;;;27.10;68.25;97398.73;110176;1244;59688;-69
2023/08/25 06:50:10;;;;;;;7.70;6.90;;;;;;;27.25;68.56;97398.46;110162;1241;71935;-69
2023/08/25 06:52:39;;;;;;;7.40;6.70;;;;;;;26.96;68.39;97399.70;110148;1245;68310;-69
2023/08/25 06:55:08;;;;;;;8.50;6.70;;;;;;;26.69;68.93;97403.80;110166;1244;69928;-69
2023/08/25 06:57:38;;;;;;;7.20;6.10;;;;;;;26.83;68.76;97405.09;110191;1245;59687;-69
2023/08/25 07:00:08;;;;;;;7.10;6.00;;;;;;;27.33;68.58;97404.84;110232;1244;59707;-69
2023/08/25 07:02:39;;;;;;;6.90;6.30;;;;;;;27.72;66.79;97404.33;110164;1244;71979;-68
2023/08/25 07:05:10;;;;;;;7.60;6.20;;;;;;;27.98;65.82;97404.79;109619;1241;687864;-69
2023/08/25 07:07:40;;;;;;;6.80;6.10;;;;;;;28.30;64.24;97405.40;110142;1243;69461;-69
2023/08/25 07:10:13;;;;;;;6.10;5.50;;;;;;;28.57;63.60;97403.25;110127;1243;59740;-68
2023/08/25 07:12:42;;;;;;;6.40;5.80;;;;;;;28.75;62.08;97401.70;110152;1241;59999;-70
2023/08/25 07:15:12;;;;;;;7.70;6.60;;;;;;;28.87;60.95;97401.70;110116;1244;71363;-70
2023/08/25 07:17:41;;;;;;;7.10;6.40;;;;;;;28.36;60.52;97399.67;110193;1243;69800;-68
2023/08/25 07:20:11;;;;;;;7.80;6.30;;;;;;;28.33;61.43;97398.23;110144;1241;68358;-70
2023/08/25 07:22:40;;;;;;;6.50;5.80;;;;;;;28.41;60.83;97400.83;110186;1241;59725;-69
2023/08/25 07:25:09;;;;;;;6.60;6.00;;;;;;;28.62;60.94;97403.67;110078;1244;59717;-68
2023/08/25 07:27:39;;;;;;;7.00;6.30;;;;;;;28.82;59.34;97400.30;110152;1241;71276;-68
2023/08/25 07:30:09;;;;;;;7.70;6.80;;;;;;;29.03;59.21;97394.74;110103;1243;69228;-69
2023/08/25 07:32:38;;;;;;;7.40;6.60;;;;;;;28.99;59.05;97401.41;110112;1243;69784;-69
2023/08/25 07:35:07;;;;;;;7.40;6.60;;;;;;;29.31;57.98;97395.50;110118;1243;59739;-67
2023/08/25 07:37:41;;;;;;;7.60;6.40;;;;;;;29.54;57.64;97389.90;110199;1242;59663;-67
2023/08/25 07:40:11;;;;;;;7.40;6.70;;;;;;;29.75;57.51;97389.21;110134;1241;71362;-68
2023/08/25 07:42:40;;;;;;;6.30;5.70;;;;;;;29.97;56.48;97389.73;110126;1241;70032;-67
2023/08/25 07:45:10;;;;;;;6.30;5.40;;;;;;;30.27;54.51;97385.30;110124;1243;69652;-66
2023/08/25 07:47:39;;;;;;;6.70;6.00;;;;;;;30.58;54.47;97389.50;110067;1243;59707;-66
2023/08/25 07:50:09;;;;;;;7.80;7.00;;;;;;;30.61;54.15;97386.70;110145;1243;59668;-67
2023/08/25 07:52:40;;;;;;;7.20;6.50;;;;;;;30.32;52.69;97386.64;110114;1245;71669;-66
2023/08/25 07:55:12;;;;;;;7.60;6.90;;;;;;;29.96;53.66;97385.47;110191;1245;68301;-68
2023/08/25 07:57:41;;;;;;;8.90;7.70;;;;;;;29.54;54.62;97382.80;110198;1241;69273;-68
2023/08/25 08:00:15;;;;;;;7.50;6.80;;;;;;;29.41;54.32;97385.30;110184;1245;59679;-69
2023/08/25 08:02:47;;;;;;;7.10;6.40;;;;;;;29.38;54.48;97390.14;110200;1244;59675;-68
2023/08/25 08:05:17;;;;;;;6.90;6.20;;;;;;;29.72;54.27;97389.52;110180;1244;72086;-67
2023/08/25 08:07:50;;;;;;;6.80;6.10;;;;;;;30.24;54.07;97401.18;110191;1244;69845;-69
2023/08/25 08:10:19;;;;;;;6.30;5.70;;;;;;;30.49;52.31;97402.27;110204;1241;69766;-69
2023/08/25 08:12:48;;;;;;;6.80;6.10;;;;;;;30.21;52.26;97402.52;110136;1245;59744;-68
2023/08/25 08:15:18;;;;;;;7.50;6.40;;;;;;;30.46;52.22;97406.08;110158;1243;59688;-66
2023/08/25 08:17:46;;;;;;;7.10;6.40;;;;;;;30.32;51.29;97411.34;110215;1245;71376;-69
2023/08/25 08:20:16;;;;;;;7.20;6.20;;;;;;;30.49;49.12;97417.79;110171;1244;69181;-68
2023/08/25 08:22:45;;;;;;;7.60;6.70;;;;;;;30.84;49.03;97420.16;110162;1244;68517;-68
2023/08/25 08:25:14;;;;;;;7.80;6.90;;;;;;;31.19;48.20;97415.22;110194;1241;59740;-68
2023/08/25 08:27:43;;;;;;;7.00;6.30;;;;;;;31.28;48.33;97410.63;110161;1244;59682;-68
2023/08/25 08:30:16;;;;;;;7.00;6.20;;;;;;;31.47;47.83;97400.16;110152;1241;71949;-68
2023/08/25 08:32:46;;;;;;;6.50;5.90;;;;;;;31.76;48.25;97396.45;110130;1241;68515;-68
2023/08/25 08:35:17;;;;;;;7.20;6.40;;;;;;;32.33;47.59;97393.27;110178;1241;69295;-68
2023/08/25 08:37:47;;;;;;;7.10;6.50;;;;;;;32.85;46.22;97391.04;110143;1241;59661;-66
2023/08/25 08:40:16;;;;;;;7.70;7.00;;;;;;;32.95;44.19;97387.08;110139;1244;59682;-65
2023/08/25 08:42:46;;;;;;;7.50;6.80;;;;;;;32.43;44.85;97381.46;110091;1243;71951;-68
2023/08/25 08:45:17;;;;;;;6.40;5.80;;;;;;;31.96;45.49;97380.92;110163;1241;69772;-68
2023/08/25 08:47:46;;;;;;;6.40;5.50;;;;;;;32.68;45.47;97384.52;110127;1243;68766;-69
2023/08/25 08:50:17;;;;;;;6.40;5.80;;;;;;;32.99;43.44;97386.64;110076;1241;59699;-68
2023/08/25 08:52:47;;;;;;;6.90;6.20;;;;;;;33.73;44.13;97390.77;110150;1243;59729;-66
2023/08/25 08:55:16;;;;;;;8.10;7.30;;;;;;;33.97;42.63;97387.04;110146;1241;72283;-69
2023/08/25 08:57:45;;;;;;;7.30;6.70;;;;;;;34.04;41.99;97388.06;110130;1241;69805;-68
2023/08/25 09:00:18;;;;;;;7.10;6.00;;;;;;;34.09;40.56;97389.45;110204;1241;69287;-68
2023/08/25 09:02:55;;;;;;;7.50;6.80;;;;;;;33.83;40.11;97375.99;110164;1241;59731;-67
2023/08/25 09:05:30;;;;;;;6.30;5.70;;;;;;;33.70;39.27;97376.77;110164;1241;59693;-67
2023/08/25 09:08:06;;;;;;;7.40;6.70;;;;;;;33.46;40.35;97379.13;110167;1241;72007;-68
2023/08/25 09:10:35;;;;;;;7.20;6.50;;;;;;;33.15;40.12;97376.66;110211;1243;69255;-68
2023/08/25 09:13:04;;;;;;;7.00;6.10;;;;;;;33.05;40.09;97373.97;110173;1244;69881;-67
2023/08/25 09:15:34;;;;;;;7.10;6.10;;;;;;;33.40;39.99;97371.59;110176;1243;59726;-68
2023/08/25 09:18:08;;;;;;;6.30;5.70;;;;;;;34.21;39.93;97372.73;110169;1241;59776;-68
2023/08/25 09:20:40;;;;;;;7.20;6.10;;;;;;;34.77;38.12;97369.93;110138;1241;72043;-67
2023/08/25 09:23:09;;;;;;;8.10;7.30;;;;;;;34.83;37.26;97372.07;110143;1244;69877;-68
2023/08/25 09:25:41;;;;;;;7.70;6.80;;;;;;;34.74;36.34;97367.73;110191;1244;69742;-68
2023/08/25 09:28:10;;;;;;;6.50;5.90;;;;;;;34.77;36.41;97360.27;110183;1241;59793;-68
2023/08/25 09:30:41;;;;;;;7.10;6.30;;;;;;;34.12;36.54;97355.58;110127;1243;59715;-66
2023/08/25 09:33:15;;;;;;;6.00;5.40;;;;;;;34.34;36.70;97357.73;110129;1244;71824;-67
2023/08/25 09:35:45;;;;;;;7.00;6.30;;;;;;;35.06;35.30;97350.67;110171;1244;69293;-67
2023/08/25 09:38:21;;;;;;;6.00;5.40;;;;;;;35.07;33.63;97346.94;110160;1245;69883;-67
2023/08/25 09:40:51;;;;;;;6.90;6.20;;;;;;;35.30;33.95;97337.60;110123;1244;59727;-67
2023/08/25 09:43:33;;;;;;;6.30;5.70;;;;;;;35.39;34.05;97336.66;110161;1243;59697;-67
2023/08/25 09:46:05;;;;;;;6.50;5.20;;;;;;;35.62;33.89;97332.90;110172;1243;71983;-68
2023/08/25 09:48:35;;;;;;;7.50;6.80;;;;;;;35.21;34.07;97338.77;110165;1241;69146;-67
2023/08/25 09:51:06;;;;;;;6.10;5.50;;;;;;;35.31;34.09;97332.00;110163;1243;68786;-67
2023/08/25 09:53:38;;;;;;;7.20;6.50;;;;;;;34.92;35.07;97330.06;110118;1244;59744;-67
2023/08/25 09:56:08;;;;;;;6.60;5.90;;;;;;;35.50;34.48;97329.56;110149;1243;59628;-68
2023/08/25 09:58:37;;;;;;;6.80;6.10;;;;;;;35.75;34.52;97331.26;110157;1244;71409;-67
2023/08/25 10:01:08;;;;;;;6.30;5.70;;;;;;;35.75;34.04;97330.23;110160;1241;69825;-67
2023/08/25 10:03:38;;;;;;;5.80;5.30;;;;;;;35.51;33.63;97332.32;110097;1241;69140;-67
2023/08/25 10:06:08;;;;;;;5.80;5.30;;;;;;;35.62;34.38;97335.34;110128;1244;59741;-67
2023/08/25 10:08:37;;;;;;;6.10;5.50;;;;;;;35.68;33.73;97332.57;110112;1243;59631;-65
2023/08/25 10:11:06;;;;;;;6.80;6.00;;;;;;;35.56;34.04;97336.92;110165;1241;71965;-67
2023/08/25 10:13:37;;;;;;;6.20;5.60;;;;;;;35.68;33.18;97331.63;110165;1243;69836;-68
2023/08/25 10:16:10;;;;;;;6.80;6.20;;;;;;;35.19;34.33;97332.78;110120;1242;69279;-68
2023/08/25 10:18:44;;;;;;;7.30;6.50;;;;;;;35.23;34.87;97331.88;110124;1241;59745;-67
2023/08/25 10:21:18;;;;;;;7.20;6.50;;;;;;;35.43;33.95;97335.15;110138;1245;59703;-66
2023/08/25 10:23:51;;;;;;;6.70;6.10;;;;;;;35.08;34.58;97334.64;110126;1243;71354;-68
2023/08/25 10:26:22;;;;;;;6.40;5.90;;;;;;;35.91;33.46;97326.22;110114;1241;69409;-68
2023/08/25 10:28:52;;;;;;;10.20;6.90;;;;;;;36.28;32.91;97331.44;110081;1245;69338;-67
2023/08/25 10:31:22;;;;;;;7.60;6.40;;;;;;;36.22;32.63;97331.80;110110;1245;59744;-66
2023/08/25 10:33:52;;;;;;;6.50;5.90;;;;;;;36.04;32.53;97332.61;110136;1241;59740;-67
2023/08/25 10:36:23;;;;;;;6.70;6.00;;;;;;;35.63;33.24;97332.02;110153;1243;70705;-67
2023/08/25 10:38:55;;;;;;;6.60;5.90;;;;;;;34.37;35.04;97328.92;110158;1244;69801;-66
2023/08/25 10:41:24;;;;;;;5.70;5.20;;;;;;;34.69;35.40;97321.59;110124;1241;69287;-68
2023/08/25 10:43:57;;;;;;;6.70;6.10;;;;;;;35.35;34.71;97320.98;110131;1241;60107;-67
2023/08/25 10:46:27;;;;;;;5.40;4.80;;;;;;;35.88;34.01;97312.95;110127;1248;59753;-66
2023/08/25 10:49:16;;;;;;;5.80;4.80;;;;;;;36.53;32.71;97322.41;110142;1241;71399;-68
2023/08/25 10:51:46;;;;;;;6.00;5.40;;;;;;;36.34;32.88;97320.15;110116;1241;68568;-65
2023/08/25 10:54:17;;;;;;;6.20;5.30;;;;;;;35.88;32.65;97323.02;110123;1244;69166;-67
2023/08/25 10:56:51;;;;;;;6.80;6.10;;;;;;;34.97;33.40;97321.13;110102;1241;59741;-67
2023/08/25 10:59:21;;;;;;;5.60;4.90;;;;;;;34.06;34.28;97323.88;110138;1244;59688;-68
2023/08/25 11:01:56;;;;;;;6.70;6.00;;;;;;;33.43;34.20;97326.11;110092;1244;71873;-67
2023/08/25 11:04:27;;;;;;;6.60;6.00;;;;;;;34.44;33.40;97323.69;110148;1243;69848;-69
2023/08/25 11:06:57;;;;;;;6.10;5.40;;;;;;;34.62;32.03;97322.86;110144;1241;69088;-70
2023/08/25 11:09:27;;;;;;;4.90;4.40;;;;;;;34.72;32.83;97320.45;110167;1246;59737;-68
2023/08/25 11:12:06;;;;;;;4.80;4.30;;;;;;;35.51;32.19;97311.67;110089;1241;59748;-66
2023/08/25 11:14:37;;;;;;;5.50;5.00;;;;;;;35.73;32.20;97306.30;110113;1243;71345;-69
2023/08/25 11:17:08;;;;;;;5.70;5.20;;;;;;;36.19;31.31;97305.02;110190;1244;70291;-69
2023/08/25 11:19:39;;;;;;;6.40;5.70;;;;;;;36.93;29.88;97304.37;110138;1244;69886;-67
2023/08/25 11:22:10;;;;;;;7.50;5.70;;;;;;;36.38;29.83;97302.60;110137;1245;59691;-67
2023/08/25 11:24:40;;;;;;;4.90;4.40;;;;;;;35.75;31.07;97303.08;110157;1243;59694;-68
2023/08/25 11:27:11;;;;;;;6.10;5.60;;;;;;;35.93;31.49;97308.59;110131;1241;71330;-67
2023/08/25 11:29:44;;;;;;;5.40;4.90;;;;;;;36.47;29.70;97305.35;110181;1245;69222;-66
2023/08/25 11:32:15;;;;;;;4.80;4.20;;;;;;;36.66;29.94;97301.59;110175;1244;69862;-67
2023/08/25 11:34:49;;;;;;;5.90;5.30;;;;;;;37.29;29.72;97300.71;110135;1243;59728;-67
2023/08/25 11:37:20;;;;;;;4.70;4.30;;;;;;;37.17;28.67;97297.74;110200;1245;59740;-68
2023/08/25 11:39:49;;;;;;;4.40;4.00;;;;;;;37.29;29.63;97292.86;110090;1245;71996;-68
2023/08/25 11:42:22;;;;;;;5.00;4.50;;;;;;;37.48;29.19;97288.55;110090;1245;69080;-68
2023/08/25 11:44:52;;;;;;;5.00;4.50;;;;;;;37.84;28.81;97287.41;110124;1242;69242;-68